Time;durP1;ratioP1;P1;durP2;ratioP2;P2;SDS_P1;SDS_P2;PMS_P1;PMS_P2;Temp;Humidity;BMP_temperature;BMP_pressure;BME280_temperature;BME280_humidity;BME280_pressure;Samples;Min_cycle;Max_cycle;Signal;HPM_P1;HPM_P2
2021/11/30 00:00:12;;;;;;;10.07;4.15;;;;;;;;;;5055959;28;20040;-59
2021/11/30 00:02:38;;;;;;;11.48;4.50;;;;;;;;;;5056724;28;20509;-59
2021/11/30 00:05:06;;;;;;;7.15;3.40;;;;;;;;;;5060083;28;20032;-59
2021/11/30 00:07:32;;;;;;;9.43;4.18;;;;;;;;;;5061586;28;20436;-58
2021/11/30 00:12:25;;;;;;;6.72;3.88;;;;;;;;;;5059435;28;20502;-60
2021/11/30 00:14:53;;;;;;;6.95;3.85;;;;;;;;;;5063262;28;20036;-58
2021/11/30 00:17:20;;;;;;;7.60;3.50;;;;;;;;;;5058151;28;20032;-58
2021/11/30 00:19:47;;;;;;;5.55;3.05;;;;;;;;;;5063053;28;20111;-58
2021/11/30 00:22:16;;;;;;;6.75;2.85;;;;;;;;;;5059547;28;20044;-57
2021/11/30 00:24:42;;;;;;;6.03;3.53;;;;;;;;;;5063492;28;20055;-58
2021/11/30 00:27:07;;;;;;;9.40;4.00;;;;;;;;;;5058191;28;20040;-59
2021/11/30 00:29:34;;;;;;;12.23;3.63;;;;;;;;;;5062796;28;20335;-58
2021/11/30 00:32:00;;;;;;;8.52;3.72;;;;;;;;;;5063339;28;20052;-58
2021/11/30 00:34:26;;;;;;;4.80;2.75;;;;;;;;;;5056902;28;20064;-58
2021/11/30 00:36:52;;;;;;;16.20;4.75;;;;;;;;;;5060993;28;20056;-59
2021/11/30 00:39:19;;;;;;;10.55;5.05;;;;;;;;;;5061295;28;20699;-59
2021/11/30 00:41:48;;;;;;;9.55;4.20;;;;;;;;;;5057843;28;20043;-58
2021/11/30 00:44:16;;;;;;;7.95;4.75;;;;;;;;;;5061887;28;20486;-58
2021/11/30 00:46:42;;;;;;;11.25;5.40;;;;;;;;;;5065863;28;20033;-57
2021/11/30 00:49:09;;;;;;;13.93;4.97;;;;;;;;;;5061213;28;20451;-58
2021/11/30 00:51:37;;;;;;;12.55;5.82;;;;;;;;;;5057378;28;20047;-57
2021/11/30 00:54:07;;;;;;;14.23;5.20;;;;;;;;;;5062363;28;20403;-59
2021/11/30 00:56:33;;;;;;;12.23;4.70;;;;;;;;;;5063447;28;20027;-57
2021/11/30 00:58:58;;;;;;;8.00;4.15;;;;;;;;;;5063449;28;20040;-58
2021/11/30 01:01:24;;;;;;;11.52;4.50;;;;;;;;;;5061125;28;20037;-58
2021/11/30 01:03:49;;;;;;;11.15;4.57;;;;;;;;;;5062823;28;20052;-59
2021/11/30 01:06:15;;;;;;;10.20;3.60;;;;;;;;;;5061324;28;20033;-58
2021/11/30 01:08:40;;;;;;;6.05;2.97;;;;;;;;;;5063181;28;20448;-57
2021/11/30 01:11:06;;;;;;;6.60;2.75;;;;;;;;;;5061720;28;20444;-59
2021/11/30 01:13:33;;;;;;;5.45;3.42;;;;;;;;;;5063980;28;20480;-59
2021/11/30 01:16:00;;;;;;;4.95;3.22;;;;;;;;;;5063655;28;20423;-58
2021/11/30 01:18:26;;;;;;;5.43;3.75;;;;;;;;;;5064333;28;20112;-58
2021/11/30 01:20:52;;;;;;;12.57;4.55;;;;;;;;;;5065626;28;20104;-57
2021/11/30 01:23:19;;;;;;;7.75;2.83;;;;;;;;;;5065580;28;20041;-58
2021/11/30 01:25:44;;;;;;;10.00;3.20;;;;;;;;;;5061195;28;20031;-58
2021/11/30 01:28:10;;;;;;;6.35;3.10;;;;;;;;;;5063674;28;20036;-58
2021/11/30 01:30:36;;;;;;;8.88;3.03;;;;;;;;;;5063141;28;20039;-58
2021/11/30 01:33:01;;;;;;;5.63;2.50;;;;;;;;;;5065494;28;20025;-58
2021/11/30 01:35:27;;;;;;;6.53;3.28;;;;;;;;;;5061398;28;20032;-57
2021/11/30 01:37:53;;;;;;;10.35;3.83;;;;;;;;;;5061082;28;20040;-58
2021/11/30 01:40:22;;;;;;;8.18;3.80;;;;;;;;;;5060659;28;20032;-58
2021/11/30 01:42:50;;;;;;;7.70;3.17;;;;;;;;;;5062913;28;20028;-58
2021/11/30 01:50:32;;;;;;;7.93;3.55;;;;;;;;;;5064549;28;20051;-58
2021/11/30 01:52:58;;;;;;;9.93;2.83;;;;;;;;;;5065076;28;20410;-59
2021/11/30 01:55:24;;;;;;;5.95;3.00;;;;;;;;;;5064632;28;20028;-58
2021/11/30 01:57:52;;;;;;;6.13;2.47;;;;;;;;;;5066656;28;20029;-58
2021/11/30 02:00:20;;;;;;;7.25;2.88;;;;;;;;;;5064354;28;20060;-58
2021/11/30 02:02:46;;;;;;;4.30;2.70;;;;;;;;;;5062117;28;20028;-58
2021/11/30 02:05:11;;;;;;;5.95;2.90;;;;;;;;;;5064858;28;20051;-58
2021/11/30 02:07:39;;;;;;;7.22;2.65;;;;;;;;;;5064957;28;20016;-58
2021/11/30 02:10:08;;;;;;;5.10;2.28;;;;;;;;;;5063903;28;20111;-58
2021/11/30 02:12:35;;;;;;;5.88;2.47;;;;;;;;;;5063934;28;20048;-59
2021/11/30 02:15:02;;;;;;;6.47;3.10;;;;;;;;;;5064669;28;20035;-58
2021/11/30 02:17:27;;;;;;;3.83;2.17;;;;;;;;;;5062234;28;20428;-58
2021/11/30 02:19:57;;;;;;;9.38;2.78;;;;;;;;;;5064624;28;20165;-58
2021/11/30 02:22:24;;;;;;;6.63;3.13;;;;;;;;;;5057853;28;20115;-58
2021/11/30 02:24:50;;;;;;;8.07;3.08;;;;;;;;;;5064636;28;20059;-59
2021/11/30 02:27:17;;;;;;;6.90;2.90;;;;;;;;;;5065244;28;20024;-58
2021/11/30 02:29:43;;;;;;;6.55;2.65;;;;;;;;;;5062288;28;20076;-58
2021/11/30 02:32:09;;;;;;;8.55;2.63;;;;;;;;;;5062603;28;20040;-59
2021/11/30 02:34:35;;;;;;;9.25;3.30;;;;;;;;;;5067951;28;20020;-59
2021/11/30 02:37:09;;;;;;;9.73;3.22;;;;;;;;;;5064755;28;20024;-59
2021/11/30 02:39:36;;;;;;;7.90;3.50;;;;;;;;;;5081243;28;20036;-57
2021/11/30 02:42:06;;;;;;;5.78;2.78;;;;;;;;;;5062098;28;20052;-57
2021/11/30 02:44:32;;;;;;;5.50;2.42;;;;;;;;;;5063542;28;20041;-57
2021/11/30 02:47:09;;;;;;;5.30;2.33;;;;;;;;;;5060608;28;20045;-60
2021/11/30 02:49:38;;;;;;;4.65;2.10;;;;;;;;;;5059397;28;20036;-58
2021/11/30 02:52:10;;;;;;;8.80;2.78;;;;;;;;;;5065099;28;20071;-57
2021/11/30 02:54:41;;;;;;;7.72;2.83;;;;;;;;;;5062740;28;20499;-57
2021/11/30 02:57:08;;;;;;;3.20;1.75;;;;;;;;;;5057438;28;20029;-58
2021/11/30 02:59:36;;;;;;;6.90;2.08;;;;;;;;;;5061674;28;20060;-60
2021/11/30 03:02:07;;;;;;;3.42;1.77;;;;;;;;;;5063294;28;20284;-59
2021/11/30 03:04:33;;;;;;;3.55;1.65;;;;;;;;;;5064816;28;20482;-59
2021/11/30 03:06:59;;;;;;;5.82;1.98;;;;;;;;;;5057872;28;20131;-58
2021/11/30 03:09:25;;;;;;;5.18;1.80;;;;;;;;;;5064126;28;20399;-58
2021/11/30 03:11:51;;;;;;;3.67;1.55;;;;;;;;;;5063112;28;20024;-58
2021/11/30 03:14:17;;;;;;;3.17;1.50;;;;;;;;;;5063940;28;20052;-59
2021/11/30 03:16:45;;;;;;;3.45;1.30;;;;;;;;;;5060617;28;20044;-58
2021/11/30 03:19:11;;;;;;;9.38;1.60;;;;;;;;;;5060795;28;20028;-59
2021/11/30 03:21:37;;;;;;;2.88;1.40;;;;;;;;;;5054828;28;20513;-59
2021/11/30 03:24:03;;;;;;;3.33;1.75;;;;;;;;;;5056461;28;20067;-59
2021/11/30 03:26:28;;;;;;;4.80;1.23;;;;;;;;;;5061837;28;20094;-58
2021/11/30 03:28:54;;;;;;;2.95;1.60;;;;;;;;;;5055177;28;20025;-57
2021/11/30 03:34:08;;;;;;;7.22;1.50;;;;;;;;;;5058313;28;20094;-58
2021/11/30 03:36:35;;;;;;;2.47;1.17;;;;;;;;;;5059463;28;20036;-58
2021/11/30 03:39:05;;;;;;;5.30;1.33;;;;;;;;;;5054644;28;20111;-59
2021/11/30 03:41:32;;;;;;;4.30;1.20;;;;;;;;;;5059115;28;20037;-59
2021/11/30 03:43:59;;;;;;;4.70;1.23;;;;;;;;;;5066479;28;20107;-58
2021/11/30 03:46:24;;;;;;;4.15;0.88;;;;;;;;;;5061958;28;20035;-59
2021/11/30 03:48:50;;;;;;;3.67;1.17;;;;;;;;;;5057750;28;20049;-58
2021/11/30 03:51:15;;;;;;;3.90;1.20;;;;;;;;;;5060319;28;20039;-59
2021/11/30 03:53:41;;;;;;;4.05;1.60;;;;;;;;;;5063144;28;20120;-57
2021/11/30 03:56:07;;;;;;;6.30;1.77;;;;;;;;;;5059544;28;20043;-57
2021/11/30 03:58:33;;;;;;;3.97;1.25;;;;;;;;;;5062160;28;20100;-57
2021/11/30 04:00:59;;;;;;;3.65;1.27;;;;;;;;;;5065356;28;20466;-57
2021/11/30 04:03:27;;;;;;;3.90;1.35;;;;;;;;;;5064372;28;20036;-57
2021/11/30 04:05:53;;;;;;;6.20;1.50;;;;;;;;;;5060498;28;20137;-58
2021/11/30 04:08:19;;;;;;;8.45;1.70;;;;;;;;;;5061990;28;20478;-58
2021/11/30 04:10:45;;;;;;;5.68;1.45;;;;;;;;;;5065890;28;20380;-58
2021/11/30 04:13:10;;;;;;;4.80;1.35;;;;;;;;;;5063920;28;20533;-58
2021/11/30 04:15:36;;;;;;;4.43;1.40;;;;;;;;;;5064734;28;20040;-58
2021/11/30 04:18:02;;;;;;;3.50;1.77;;;;;;;;;;5080211;28;20035;-58
2021/11/30 04:20:27;;;;;;;2.35;1.15;;;;;;;;;;5060871;28;20040;-58
2021/11/30 04:22:53;;;;;;;4.28;1.45;;;;;;;;;;5059807;28;20466;-58
2021/11/30 04:25:19;;;;;;;6.68;1.88;;;;;;;;;;5063988;28;20436;-58
2021/11/30 04:27:44;;;;;;;2.70;1.25;;;;;;;;;;5061393;28;20037;-58
2021/11/30 04:30:10;;;;;;;2.15;1.30;;;;;;;;;;5063603;28;20044;-58
2021/11/30 04:32:36;;;;;;;2.22;1.08;;;;;;;;;;5059103;28;20398;-58
2021/11/30 04:35:03;;;;;;;5.00;1.40;;;;;;;;;;5054418;28;20056;-58
2021/11/30 04:37:28;;;;;;;9.45;1.58;;;;;;;;;;5062607;28;20034;-59
2021/11/30 04:39:54;;;;;;;3.08;1.20;;;;;;;;;;5059600;28;20091;-58
2021/11/30 04:42:22;;;;;;;4.20;1.20;;;;;;;;;;5066223;28;20029;-59
2021/11/30 04:44:57;;;;;;;4.90;1.38;;;;;;;;;;5066367;28;20175;-59
2021/11/30 04:47:25;;;;;;;3.90;0.95;;;;;;;;;;5069089;28;20471;-58
2021/11/30 04:49:56;;;;;;;5.55;1.40;;;;;;;;;;5063482;28;20052;-58
2021/11/30 04:52:22;;;;;;;1.77;0.98;;;;;;;;;;5065467;28;20036;-59
2021/11/30 04:54:48;;;;;;;3.08;1.00;;;;;;;;;;5063348;28;20043;-58
2021/11/30 04:57:13;;;;;;;3.17;0.95;;;;;;;;;;5061172;28;20480;-59
2021/11/30 04:59:39;;;;;;;2.17;0.70;;;;;;;;;;5062173;28;20289;-59
2021/11/30 05:02:04;;;;;;;1.88;0.85;;;;;;;;;;5063724;28;20032;-58
2021/11/30 05:04:30;;;;;;;2.72;1.08;;;;;;;;;;5065775;28;20366;-59
2021/11/30 05:06:57;;;;;;;3.00;0.77;;;;;;;;;;5067756;28;20032;-59
2021/11/30 05:09:23;;;;;;;4.22;1.67;;;;;;;;;;5059294;28;20101;-58
2021/11/30 05:11:48;;;;;;;2.13;0.63;;;;;;;;;;5063556;28;20029;-59
2021/11/30 05:14:14;;;;;;;2.67;0.90;;;;;;;;;;5064777;28;20021;-59
2021/11/30 05:16:39;;;;;;;2.65;1.02;;;;;;;;;;5067213;28;20020;-59
2021/11/30 05:19:05;;;;;;;4.05;0.98;;;;;;;;;;5057272;28;20495;-59
2021/11/30 05:21:31;;;;;;;3.35;1.13;;;;;;;;;;5069822;28;20279;-58
2021/11/30 05:24:01;;;;;;;3.45;0.98;;;;;;;;;;5061848;28;20480;-58
2021/11/30 05:26:28;;;;;;;4.68;1.60;;;;;;;;;;5063623;28;20114;-58
2021/11/30 05:28:54;;;;;;;5.20;1.13;;;;;;;;;;5062498;28;20029;-58
2021/11/30 05:31:19;;;;;;;2.97;1.25;;;;;;;;;;5061669;28;20064;-58
2021/11/30 05:33:47;;;;;;;5.95;1.10;;;;;;;;;;5066797;28;20082;-58
2021/11/30 05:36:13;;;;;;;2.33;1.08;;;;;;;;;;5067378;28;20039;-58
2021/11/30 05:38:39;;;;;;;3.22;1.13;;;;;;;;;;5063402;28;20073;-58
2021/11/30 05:41:05;;;;;;;3.95;1.30;;;;;;;;;;5063482;28;20029;-58
2021/11/30 05:43:30;;;;;;;7.28;1.20;;;;;;;;;;5065751;28;20490;-59
2021/11/30 05:45:56;;;;;;;2.05;0.95;;;;;;;;;;5064447;28;20032;-58
2021/11/30 05:48:23;;;;;;;3.03;1.00;;;;;;;;;;5065417;28;20056;-59
2021/11/30 05:50:48;;;;;;;2.40;1.10;;;;;;;;;;5080206;28;20115;-59
2021/11/30 05:53:14;;;;;;;3.38;0.60;;;;;;;;;;5061768;28;20175;-59
2021/11/30 05:55:39;;;;;;;1.83;0.75;;;;;;;;;;5059212;28;20029;-58
2021/11/30 05:58:05;;;;;;;2.00;0.60;;;;;;;;;;5060117;28;20305;-58
2021/11/30 06:00:33;;;;;;;3.63;1.17;;;;;;;;;;5058821;28;20035;-59
2021/11/30 06:05:28;;;;;;;3.00;0.82;;;;;;;;;;5060890;28;20045;-58
2021/11/30 06:07:55;;;;;;;2.97;1.20;;;;;;;;;;5062988;28;20039;-58
2021/11/30 06:10:21;;;;;;;3.28;1.00;;;;;;;;;;5065212;28;20032;-59
2021/11/30 06:12:47;;;;;;;5.45;1.27;;;;;;;;;;5059154;28;20016;-59
2021/11/30 06:15:14;;;;;;;4.18;1.08;;;;;;;;;;5066140;28;20036;-59
2021/11/30 06:17:40;;;;;;;3.25;1.15;;;;;;;;;;5061281;28;20112;-59
2021/11/30 06:20:06;;;;;;;4.45;0.95;;;;;;;;;;5064794;28;20465;-59
2021/11/30 06:22:33;;;;;;;5.40;1.10;;;;;;;;;;5068467;28;20028;-59
2021/11/30 06:24:59;;;;;;;3.08;1.48;;;;;;;;;;5061276;28;20444;-58
2021/11/30 06:27:25;;;;;;;3.65;1.55;;;;;;;;;;5063031;28;20031;-60
2021/11/30 06:29:50;;;;;;;6.65;1.40;;;;;;;;;;5064638;28;20028;-59
2021/11/30 06:32:16;;;;;;;3.00;1.23;;;;;;;;;;5057249;28;20078;-59
2021/11/30 06:34:41;;;;;;;3.33;1.13;;;;;;;;;;5065616;28;20070;-59
2021/11/30 06:37:08;;;;;;;2.53;0.80;;;;;;;;;;5063350;28;20127;-59
2021/11/30 06:39:35;;;;;;;3.00;1.30;;;;;;;;;;5059406;28;20062;-58
2021/11/30 06:42:01;;;;;;;5.75;1.55;;;;;;;;;;5065266;28;20112;-59
2021/11/30 06:44:26;;;;;;;6.40;1.40;;;;;;;;;;5056410;28;20116;-59
2021/11/30 06:46:52;;;;;;;7.45;1.67;;;;;;;;;;5066561;28;20135;-59
2021/11/30 06:49:17;;;;;;;3.28;1.40;;;;;;;;;;5062313;28;20056;-59
2021/11/30 06:51:44;;;;;;;2.75;1.10;;;;;;;;;;5059621;28;20040;-59
2021/11/30 06:54:09;;;;;;;3.92;1.70;;;;;;;;;;5063776;28;20177;-59
2021/11/30 06:56:35;;;;;;;5.82;1.20;;;;;;;;;;5059226;28;20554;-58
2021/11/30 06:59:00;;;;;;;4.13;1.48;;;;;;;;;;5061944;28;20047;-58
2021/11/30 07:01:28;;;;;;;2.67;1.17;;;;;;;;;;5060334;28;20025;-57
2021/11/30 07:03:54;;;;;;;5.03;0.88;;;;;;;;;;5061394;28;20135;-57
2021/11/30 07:06:27;;;;;;;3.55;1.40;;;;;;;;;;5064174;28;20868;-58
2021/11/30 07:11:47;;;;;;;4.28;1.48;;;;;;;;;;5062803;28;20051;-58
2021/11/30 07:14:13;;;;;;;5.22;1.30;;;;;;;;;;5060406;28;20052;-59
2021/11/30 07:16:38;;;;;;;4.85;1.00;;;;;;;;;;5063895;28;20063;-59
2021/11/30 07:19:05;;;;;;;7.28;1.80;;;;;;;;;;5064569;28;20032;-58
2021/11/30 07:21:31;;;;;;;8.95;2.22;;;;;;;;;;5056672;28;20059;-58
2021/11/30 07:23:57;;;;;;;7.18;1.70;;;;;;;;;;5062434;28;20056;-58
2021/11/30 07:26:23;;;;;;;13.05;2.15;;;;;;;;;;5063128;28;20032;-58
2021/11/30 07:28:49;;;;;;;6.55;1.75;;;;;;;;;;5063913;28;20055;-58
2021/11/30 07:31:15;;;;;;;3.60;1.35;;;;;;;;;;5066411;28;20028;-58
2021/11/30 07:33:44;;;;;;;4.38;1.23;;;;;;;;;;5063877;28;20031;-58
2021/11/30 07:36:11;;;;;;;6.20;1.35;;;;;;;;;;5061555;28;20111;-58
2021/11/30 07:38:41;;;;;;;4.68;1.50;;;;;;;;;;5057833;28;20078;-58
2021/11/30 07:41:07;;;;;;;4.00;1.48;;;;;;;;;;5077822;28;20043;-58
2021/11/30 07:43:34;;;;;;;5.82;1.48;;;;;;;;;;5060241;28;20032;-58
2021/11/30 07:46:00;;;;;;;9.43;2.38;;;;;;;;;;5062935;28;20036;-58
2021/11/30 07:48:27;;;;;;;6.30;1.98;;;;;;;;;;5063253;28;20066;-58
2021/11/30 07:50:54;;;;;;;12.07;2.90;;;;;;;;;;5057469;28;20530;-58
2021/11/30 07:53:20;;;;;;;14.30;2.53;;;;;;;;;;5057282;28;20040;-59
2021/11/30 07:55:46;;;;;;;6.10;1.73;;;;;;;;;;5065762;28;20111;-59
2021/11/30 07:58:11;;;;;;;7.97;2.05;;;;;;;;;;5063831;28;20166;-58
2021/11/30 08:00:37;;;;;;;7.90;2.42;;;;;;;;;;5055408;28;20028;-59
2021/11/30 08:03:03;;;;;;;9.82;2.33;;;;;;;;;;5058219;28;20040;-59
2021/11/30 08:05:29;;;;;;;9.63;1.77;;;;;;;;;;5062985;28;20044;-60
2021/11/30 08:07:54;;;;;;;7.70;1.98;;;;;;;;;;5055379;28;20025;-60
2021/11/30 08:10:25;;;;;;;7.65;1.75;;;;;;;;;;5061931;28;20047;-59
2021/11/30 08:12:51;;;;;;;6.00;1.42;;;;;;;;;;5061933;28;20036;-60
2021/11/30 08:15:16;;;;;;;4.32;1.23;;;;;;;;;;5060629;28;20124;-59
2021/11/30 08:17:42;;;;;;;7.55;1.40;;;;;;;;;;5062460;28;20025;-60
2021/11/30 08:20:09;;;;;;;6.63;1.33;;;;;;;;;;5064556;28;20090;-60
2021/11/30 08:22:35;;;;;;;6.43;1.55;;;;;;;;;;5064630;28;20189;-68
2021/11/30 08:25:01;;;;;;;4.78;1.27;;;;;;;;;;5067139;28;20571;-62
2021/11/30 08:27:26;;;;;;;8.23;1.40;;;;;;;;;;5062799;28;20112;-62
2021/11/30 08:29:52;;;;;;;2.72;0.70;;;;;;;;;;5061745;28;20388;-62
2021/11/30 08:32:23;;;;;;;5.63;0.85;;;;;;;;;;5060828;28;20112;-63
2021/11/30 08:34:51;;;;;;;5.85;1.77;;;;;;;;;;5066323;28;20036;-62
2021/11/30 08:37:17;;;;;;;7.80;2.30;;;;;;;;;;5068907;28;20024;-63
2021/11/30 08:39:43;;;;;;;6.63;1.75;;;;;;;;;;5063244;28;20046;-62
2021/11/30 08:42:11;;;;;;;4.22;1.60;;;;;;;;;;5064543;28;20083;-62
2021/11/30 08:44:37;;;;;;;3.65;1.00;;;;;;;;;;5066921;28;20423;-62
2021/11/30 08:47:05;;;;;;;4.03;1.35;;;;;;;;;;5065555;28;20193;-61
2021/11/30 08:49:30;;;;;;;3.40;1.45;;;;;;;;;;5062644;28;20494;-61
2021/11/30 08:51:57;;;;;;;4.05;0.68;;;;;;;;;;5065845;28;20059;-61
2021/11/30 08:54:28;;;;;;;4.75;1.40;;;;;;;;;;5063725;28;20090;-61
2021/11/30 08:56:54;;;;;;;4.57;0.70;;;;;;;;;;5059601;28;20573;-61
2021/11/30 08:59:20;;;;;;;4.10;0.70;;;;;;;;;;5063217;28;20025;-61
2021/11/30 09:01:46;;;;;;;5.18;0.80;;;;;;;;;;5067503;28;20029;-62
2021/11/30 09:04:12;;;;;;;5.55;1.48;;;;;;;;;;5058604;28;20044;-61
2021/11/30 09:06:38;;;;;;;6.75;1.48;;;;;;;;;;5068697;28;20029;-62
2021/11/30 09:09:07;;;;;;;7.03;1.52;;;;;;;;;;5061702;28;20078;-61
2021/11/30 09:11:34;;;;;;;5.10;1.42;;;;;;;;;;5059416;28;20454;-60
2021/11/30 09:13:59;;;;;;;3.53;1.15;;;;;;;;;;5066355;28;20056;-60
2021/11/30 09:16:25;;;;;;;2.08;0.70;;;;;;;;;;5068080;28;20064;-60
2021/11/30 09:18:51;;;;;;;4.05;0.80;;;;;;;;;;5065265;28;20190;-61
2021/11/30 09:21:17;;;;;;;3.60;0.82;;;;;;;;;;5066978;28;20036;-60
2021/11/30 09:23:44;;;;;;;1.63;0.40;;;;;;;;;;5069281;28;20049;-61
2021/11/30 09:26:10;;;;;;;1.67;0.40;;;;;;;;;;5066321;28;20532;-61
2021/11/30 09:28:36;;;;;;;1.52;0.40;;;;;;;;;;5063092;28;20028;-60
2021/11/30 09:31:02;;;;;;;2.25;0.40;;;;;;;;;;5063348;28;20443;-60
2021/11/30 09:33:27;;;;;;;3.17;0.60;;;;;;;;;;5066895;28;20170;-61
2021/11/30 09:35:53;;;;;;;1.52;0.60;;;;;;;;;;5067354;28;20028;-61
2021/11/30 09:38:18;;;;;;;1.05;0.50;;;;;;;;;;5058171;28;20473;-60
2021/11/30 09:40:44;;;;;;;1.58;0.80;;;;;;;;;;5068075;28;20509;-61
2021/11/30 09:43:10;;;;;;;1.27;0.60;;;;;;;;;;5064158;28;20039;-60
2021/11/30 09:45:38;;;;;;;1.15;0.65;;;;;;;;;;5064587;28;20036;-61
2021/11/30 09:48:10;;;;;;;2.88;0.70;;;;;;;;;;5059616;28;20080;-62
2021/11/30 09:50:37;;;;;;;1.27;0.65;;;;;;;;;;5068082;28;20506;-61
2021/11/30 09:53:03;;;;;;;5.63;0.85;;;;;;;;;;5067791;28;20025;-60
2021/11/30 09:55:29;;;;;;;2.10;0.73;;;;;;;;;;5064860;28;20036;-61
2021/11/30 09:57:54;;;;;;;1.63;0.82;;;;;;;;;;5065916;28;20103;-61
2021/11/30 10:00:22;;;;;;;2.20;0.70;;;;;;;;;;5058264;28;20522;-62
2021/11/30 10:02:50;;;;;;;3.05;1.23;;;;;;;;;;5062578;28;20036;-61
2021/11/30 10:05:19;;;;;;;2.97;0.82;;;;;;;;;;5063822;28;20024;-62
2021/11/30 10:07:51;;;;;;;0.98;0.50;;;;;;;;;;5061529;28;20111;-61
2021/11/30 10:10:19;;;;;;;1.58;0.63;;;;;;;;;;5067482;28;20029;-61
2021/11/30 10:12:54;;;;;;;1.40;0.47;;;;;;;;;;5064185;28;20032;-61
2021/11/30 10:15:20;;;;;;;1.15;0.50;;;;;;;;;;5059147;28;20020;-61
2021/11/30 10:17:45;;;;;;;1.00;0.52;;;;;;;;;;5065570;28;20100;-61
2021/11/30 10:20:14;;;;;;;4.47;0.88;;;;;;;;;;5068038;28;20025;-61
2021/11/30 10:22:42;;;;;;;3.33;0.88;;;;;;;;;;5064492;28;20269;-61
2021/11/30 10:25:29;;;;;;;0.55;0.30;;;;;;;;;;5062290;28;20036;-61
2021/11/30 10:28:00;;;;;;;1.35;0.63;;;;;;;;;;5055650;28;20021;-60
2021/11/30 10:30:31;;;;;;;1.20;0.60;;;;;;;;;;5060541;28;20028;-60
2021/11/30 10:33:01;;;;;;;1.35;0.57;;;;;;;;;;5061179;28;20041;-61
2021/11/30 10:35:28;;;;;;;2.65;0.90;;;;;;;;;;5064740;28;20028;-60
2021/11/30 10:37:56;;;;;;;2.58;0.60;;;;;;;;;;5060852;28;20411;-61
2021/11/30 10:40:24;;;;;;;2.47;0.55;;;;;;;;;;5060360;28;20040;-62
2021/11/30 10:42:55;;;;;;;2.55;1.02;;;;;;;;;;5065321;28;20021;-61
2021/11/30 10:45:47;;;;;;;1.67;0.77;;;;;;;;;;5062592;28;20029;-61
2021/11/30 10:48:17;;;;;;;4.35;0.70;;;;;;;;;;5061295;28;20087;-62
2021/11/30 10:50:46;;;;;;;7.45;1.27;;;;;;;;;;5063275;28;20518;-68
2021/11/30 10:53:17;;;;;;;3.97;0.70;;;;;;;;;;5060933;28;20065;-63
2021/11/30 10:55:46;;;;;;;3.38;0.88;;;;;;;;;;5066683;28;20063;-61
2021/11/30 10:58:12;;;;;;;2.72;1.00;;;;;;;;;;5064097;28;20107;-64
2021/11/30 11:00:37;;;;;;;2.53;0.68;;;;;;;;;;5060749;28;20104;-62
2021/11/30 11:03:13;;;;;;;1.20;0.40;;;;;;;;;;5064427;28;20044;-63
2021/11/30 11:08:43;;;;;;;2.65;0.47;;;;;;;;;;5063842;28;20040;-63
2021/11/30 11:11:11;;;;;;;2.55;0.70;;;;;;;;;;5059377;28;20511;-63
2021/11/30 11:13:39;;;;;;;1.58;0.85;;;;;;;;;;5062365;28;20082;-64
2021/11/30 11:16:30;;;;;;;2.83;0.50;;;;;;;;;;5064460;28;20028;-63
2021/11/30 11:18:59;;;;;;;5.65;1.08;;;;;;;;;;5061093;28;20131;-62
2021/11/30 11:21:29;;;;;;;2.85;1.00;;;;;;;;;;5062943;28;20033;-62
2021/11/30 11:24:04;;;;;;;2.47;0.85;;;;;;;;;;5063603;28;20040;-63
2021/11/30 11:26:31;;;;;;;1.92;0.82;;;;;;;;;;5064424;28;20070;-63
2021/11/30 11:29:00;;;;;;;2.15;0.90;;;;;;;;;;5061853;28;20107;-62
2021/11/30 11:31:27;;;;;;;2.13;0.70;;;;;;;;;;5059960;28;20582;-63
2021/11/30 11:33:55;;;;;;;2.90;1.10;;;;;;;;;;5067814;28;20032;-63
2021/11/30 11:36:21;;;;;;;9.25;0.82;;;;;;;;;;5067217;28;20587;-62
2021/11/30 11:38:47;;;;;;;4.78;2.03;;;;;;;;;;5077838;28;20021;-62
2021/11/30 11:41:13;;;;;;;3.33;0.88;;;;;;;;;;5062960;28;20032;-64
2021/11/30 11:43:40;;;;;;;1.65;0.65;;;;;;;;;;5061224;28;20036;-64
2021/11/30 11:46:09;;;;;;;1.27;0.73;;;;;;;;;;5063762;28;20021;-63
2021/11/30 11:48:35;;;;;;;3.47;1.02;;;;;;;;;;5062420;28;20186;-63
2021/11/30 11:51:03;;;;;;;1.83;0.60;;;;;;;;;;5064783;28;20028;-64
2021/11/30 11:53:49;;;;;;;0.98;0.60;;;;;;;;;;5058721;28;20123;-64
2021/11/30 11:56:17;;;;;;;1.85;0.70;;;;;;;;;;5064756;28;20095;-64
2021/11/30 11:58:46;;;;;;;2.83;0.90;;;;;;;;;;5061563;28;20370;-63
2021/11/30 12:01:21;;;;;;;4.40;1.15;;;;;;;;;;5061252;28;20029;-62
2021/11/30 12:04:00;;;;;;;2.63;0.88;;;;;;;;;;5058655;28;20041;-62
2021/11/30 12:06:29;;;;;;;2.30;1.10;;;;;;;;;;5058899;28;20028;-63
2021/11/30 12:09:17;;;;;;;3.65;1.00;;;;;;;;;;5061596;28;20536;-62
2021/11/30 12:11:51;;;;;;;4.55;1.38;;;;;;;;;;5060465;28;20027;-63
2021/11/30 12:14:22;;;;;;;2.35;0.88;;;;;;;;;;5064814;28;20032;-63
2021/11/30 12:17:10;;;;;;;3.72;1.38;;;;;;;;;;5062852;28;20490;-63
2021/11/30 12:20:06;;;;;;;1.33;0.82;;;;;;;;;;5045480;28;20090;-62
2021/11/30 12:22:53;;;;;;;4.75;0.70;;;;;;;;;;5063270;28;20021;-63
2021/11/30 12:25:40;;;;;;;1.27;0.65;;;;;;;;;;5065757;28;20028;-63
2021/11/30 12:28:09;;;;;;;2.67;0.70;;;;;;;;;;5057723;28;20024;-63
2021/11/30 12:30:48;;;;;;;2.92;1.30;;;;;;;;;;5064734;28;20024;-63
2021/11/30 12:33:18;;;;;;;4.07;1.30;;;;;;;;;;5059196;28;20085;-61
2021/11/30 12:35:50;;;;;;;6.75;1.83;;;;;;;;;;5063295;28;20050;-61
2021/11/30 12:38:16;;;;;;;11.50;2.28;;;;;;;;;;5058537;28;20502;-62
2021/11/30 12:40:43;;;;;;;4.25;1.30;;;;;;;;;;5060395;28;20063;-62
2021/11/30 12:43:13;;;;;;;3.15;1.00;;;;;;;;;;5056238;28;20064;-63
2021/11/30 12:45:39;;;;;;;8.10;0.95;;;;;;;;;;5058302;28;20433;-63
2021/11/30 12:48:15;;;;;;;2.83;1.20;;;;;;;;;;5055448;28;20045;-61
2021/11/30 12:50:40;;;;;;;1.08;0.80;;;;;;;;;;5063076;28;20167;-62
2021/11/30 12:53:06;;;;;;;6.13;0.70;;;;;;;;;;5059368;28;20656;-62
2021/11/30 12:55:47;;;;;;;4.93;1.17;;;;;;;;;;5058481;28;20035;-62
2021/11/30 12:58:37;;;;;;;4.18;1.27;;;;;;;;;;5061057;28;20425;-62
2021/11/30 13:01:16;;;;;;;1.73;0.85;;;;;;;;;;5059155;28;20074;-63
2021/11/30 13:03:42;;;;;;;2.67;0.93;;;;;;;;;;5058065;28;20017;-62
2021/11/30 13:06:08;;;;;;;2.90;0.90;;;;;;;;;;5060808;28;20433;-63
2021/11/30 13:09:01;;;;;;;1.23;0.60;;;;;;;;;;5062779;28;20132;-62
2021/11/30 13:11:30;;;;;;;4.82;0.75;;;;;;;;;;5059019;28;20483;-62
2021/11/30 13:14:05;;;;;;;2.15;0.70;;;;;;;;;;5062216;28;20040;-62
2021/11/30 13:16:34;;;;;;;2.47;0.80;;;;;;;;;;5065421;28;20025;-62
2021/11/30 13:19:09;;;;;;;3.10;1.10;;;;;;;;;;5068169;28;20036;-62
2021/11/30 13:21:42;;;;;;;2.85;0.85;;;;;;;;;;5059988;28;20056;-62
2021/11/30 13:24:11;;;;;;;2.80;0.60;;;;;;;;;;5063919;28;20036;-62
2021/11/30 13:26:38;;;;;;;1.40;0.70;;;;;;;;;;5057983;28;20615;-62
2021/11/30 13:29:04;;;;;;;0.90;0.47;;;;;;;;;;5059513;28;20029;-61
2021/11/30 13:31:29;;;;;;;2.80;0.70;;;;;;;;;;5057440;28;20028;-62
2021/11/30 13:33:56;;;;;;;5.05;0.90;;;;;;;;;;5064678;28;20491;-63
2021/11/30 13:36:32;;;;;;;3.92;1.10;;;;;;;;;;5064818;28;20035;-63
2021/11/30 13:39:00;;;;;;;1.08;0.52;;;;;;;;;;5064174;28;20470;-62
2021/11/30 13:41:26;;;;;;;1.60;0.55;;;;;;;;;;5068687;28;20478;-62
2021/11/30 13:43:53;;;;;;;2.15;1.00;;;;;;;;;;5066061;28;20028;-62
2021/11/30 13:46:28;;;;;;;3.40;1.33;;;;;;;;;;5062427;28;20079;-62
2021/11/30 13:49:02;;;;;;;1.63;0.90;;;;;;;;;;5061879;28;20436;-63
2021/11/30 13:51:32;;;;;;;3.08;1.30;;;;;;;;;;5064548;28;20123;-63
2021/11/30 13:54:04;;;;;;;2.75;1.30;;;;;;;;;;5060160;28;20017;-64
2021/11/30 13:56:33;;;;;;;4.05;1.85;;;;;;;;;;5064793;28;20021;-63
2021/11/30 14:04:35;;;;;;;2.35;1.00;;;;;;;;;;5068224;28;20032;-61
2021/11/30 14:07:04;;;;;;;2.63;1.23;;;;;;;;;;5063594;28;20048;-63
2021/11/30 14:09:47;;;;;;;2.55;1.10;;;;;;;;;;5065550;28;20044;-62
2021/11/30 14:12:17;;;;;;;3.50;0.80;;;;;;;;;;5068532;28;20028;-62
2021/11/30 14:14:45;;;;;;;1.95;1.08;;;;;;;;;;5066297;28;20031;-60
2021/11/30 14:17:30;;;;;;;11.45;1.05;;;;;;;;;;5066715;28;20077;-61
2021/11/30 14:19:56;;;;;;;2.92;1.05;;;;;;;;;;5059594;28;20083;-68
2021/11/30 14:22:31;;;;;;;10.60;1.45;;;;;;;;;;5062592;28;20491;-66
2021/11/30 14:25:18;;;;;;;3.92;0.95;;;;;;;;;;5064488;28;20033;-64
2021/11/30 14:27:58;;;;;;;3.45;0.75;;;;;;;;;;5058450;28;20115;-62
2021/11/30 14:30:31;;;;;;;1.45;0.60;;;;;;;;;;5061709;28;20029;-64
2021/11/30 14:33:01;;;;;;;2.28;0.60;;;;;;;;;;5061958;28;20025;-63
2021/11/30 14:35:35;;;;;;;1.95;0.85;;;;;;;;;;5062209;28;20024;-63
2021/11/30 14:38:01;;;;;;;2.35;1.00;;;;;;;;;;5067030;28;20082;-63
2021/11/30 14:40:31;;;;;;;6.15;0.80;;;;;;;;;;5062131;28;20029;-63
2021/11/30 14:43:03;;;;;;;9.52;1.00;;;;;;;;;;5065336;28;20036;-64
2021/11/30 14:45:34;;;;;;;1.42;0.60;;;;;;;;;;5066700;28;20050;-62
2021/11/30 14:48:26;;;;;;;2.03;0.73;;;;;;;;;;5061574;28;20094;-63
2021/11/30 14:51:03;;;;;;;0.80;0.50;;;;;;;;;;5060918;28;20068;-62
2021/11/30 14:53:30;;;;;;;1.58;0.52;;;;;;;;;;5070632;28;20399;-62
2021/11/30 14:56:00;;;;;;;2.45;1.13;;;;;;;;;;5065290;28;20027;-62
2021/11/30 14:58:40;;;;;;;5.93;0.75;;;;;;;;;;5059946;28;20021;-62
2021/11/30 15:01:27;;;;;;;3.47;0.88;;;;;;;;;;5062903;28;20368;-62
2021/11/30 15:04:00;;;;;;;1.38;0.68;;;;;;;;;;5062534;28;20039;-62
2021/11/30 15:06:29;;;;;;;2.28;0.82;;;;;;;;;;5055280;28;20400;-63
2021/11/30 15:09:00;;;;;;;1.88;0.90;;;;;;;;;;5062951;28;20029;-63
2021/11/30 15:11:37;;;;;;;3.50;1.13;;;;;;;;;;5061367;28;20066;-63
2021/11/30 15:14:31;;;;;;;2.65;1.20;;;;;;;;;;5055697;28;20017;-63